sensor_id;sensor_type;location;lat;lon;timestamp;pressure;altitude;pressure_sealevel;temperature;humidity
33496;BME280;19836;55.812;37.560;2023-08-24T00:01:11;99093.84;;;16.87;83.37
33496;BME280;19836;55.812;37.560;2023-08-24T00:03:40;99092.09;;;16.86;82.96
33496;BME280;19836;55.812;37.560;2023-08-24T00:06:06;99084.09;;;16.85;83.00
33496;BME280;19836;55.812;37.560;2023-08-24T00:08:32;99085.91;;;16.84;82.92
33496;BME280;19836;55.812;37.560;2023-08-24T00:10:58;99086.91;;;16.83;82.89
33496;BME280;19836;55.812;37.560;2023-08-24T00:13:24;99089.59;;;16.83;82.81
33496;BME280;19836;55.812;37.560;2023-08-24T00:15:53;99091.44;;;16.83;82.72
33496;BME280;19836;55.812;37.560;2023-08-24T00:18:19;99107.56;;;16.84;82.60
33496;BME280;19836;55.812;37.560;2023-08-24T00:20:50;99097.72;;;16.83;82.77
33496;BME280;19836;55.812;37.560;2023-08-24T00:23:16;99106.59;;;16.85;82.61
33496;BME280;19836;55.812;37.560;2023-08-24T00:25:42;99106.59;;;16.85;82.34
33496;BME280;19836;55.812;37.560;2023-08-24T00:28:09;99094.03;;;16.84;82.25
33496;BME280;19836;55.812;37.560;2023-08-24T00:30:36;99107.47;;;16.86;82.28
33496;BME280;19836;55.812;37.560;2023-08-24T00:33:02;99108.22;;;16.88;82.16
33496;BME280;19836;55.812;37.560;2023-08-24T00:35:28;99114.53;;;16.88;82.00
33496;BME280;19836;55.812;37.560;2023-08-24T00:37:54;99112.00;;;16.85;82.20
33496;BME280;19836;55.812;37.560;2023-08-24T00:40:20;99114.53;;;16.88;81.76
33496;BME280;19836;55.812;37.560;2023-08-24T00:42:46;99113.53;;;16.89;81.73
33496;BME280;19836;55.812;37.560;2023-08-24T00:45:13;99114.44;;;16.90;80.97
33496;BME280;19836;55.812;37.560;2023-08-24T00:47:42;99109.00;;;16.90;81.06
33496;BME280;19836;55.812;37.560;2023-08-24T00:50:11;99101.66;;;16.92;81.07
33496;BME280;19836;55.812;37.560;2023-08-24T00:52:42;99108.78;;;16.93;81.32
33496;BME280;19836;55.812;37.560;2023-08-24T00:55:09;99106.19;;;16.91;80.93
33496;BME280;19836;55.812;37.560;2023-08-24T00:57:36;99117.00;;;16.91;80.71
33496;BME280;19836;55.812;37.560;2023-08-24T01:00:05;99100.78;;;16.91;80.34
33496;BME280;19836;55.812;37.560;2023-08-24T01:02:33;99114.22;;;16.93;80.68
33496;BME280;19836;55.812;37.560;2023-08-24T01:05:00;99104.25;;;16.93;80.77
33496;BME280;19836;55.812;37.560;2023-08-24T01:07:26;99110.53;;;16.94;80.50
33496;BME280;19836;55.812;37.560;2023-08-24T01:09:52;99105.00;;;16.95;80.69
33496;BME280;19836;55.812;37.560;2023-08-24T01:15:29;99104.03;;;16.96;80.48
33496;BME280;19836;55.812;37.560;2023-08-24T01:18:03;99105.00;;;16.95;80.55
33496;BME280;19836;55.812;37.560;2023-08-24T01:20:30;99107.72;;;16.95;80.47
33496;BME280;19836;55.812;37.560;2023-08-24T01:28:38;99102.03;;;17.00;80.47
33496;BME280;19836;55.812;37.560;2023-08-24T01:31:06;99102.97;;;16.99;80.46
33496;BME280;19836;55.812;37.560;2023-08-24T01:33:33;99102.22;;;16.97;80.88
33496;BME280;19836;55.812;37.560;2023-08-24T01:35:59;99107.72;;;16.95;80.66
33496;BME280;19836;55.812;37.560;2023-08-24T01:38:27;99102.53;;;16.92;80.74
33496;BME280;19836;55.812;37.560;2023-08-24T01:41:12;99116.06;;;16.92;81.05
33496;BME280;19836;55.812;37.560;2023-08-24T01:43:44;99122.41;;;16.91;80.84
33496;BME280;19836;55.812;37.560;2023-08-24T01:46:14;99112.56;;;16.90;81.15
33496;BME280;19836;55.812;37.560;2023-08-24T01:48:40;99109.97;;;16.89;81.21
33496;BME280;19836;55.812;37.560;2023-08-24T01:51:07;99117.22;;;16.88;80.96
33496;BME280;19836;55.812;37.560;2023-08-24T01:53:36;99114.44;;;16.90;81.47
33496;BME280;19836;55.812;37.560;2023-08-24T01:56:10;99114.31;;;16.91;81.42
33496;BME280;19836;55.812;37.560;2023-08-24T01:58:36;99110.75;;;16.91;81.23
33496;BME280;19836;55.812;37.560;2023-08-24T02:01:04;99110.75;;;16.91;81.42
33496;BME280;19836;55.812;37.560;2023-08-24T02:03:30;99109.88;;;16.90;81.38
33496;BME280;19836;55.812;37.560;2023-08-24T02:05:57;99109.88;;;16.90;81.58
33496;BME280;19836;55.812;37.560;2023-08-24T02:08:23;99104.44;;;16.90;81.18
33496;BME280;19836;55.812;37.560;2023-08-24T02:10:49;99108.13;;;16.89;81.57
33496;BME280;19836;55.812;37.560;2023-08-24T02:13:15;99108.13;;;16.89;81.76
33496;BME280;19836;55.812;37.560;2023-08-24T02:15:41;99106.19;;;16.91;81.78
33496;BME280;19836;55.812;37.560;2023-08-24T02:18:07;99106.09;;;16.93;81.49
33496;BME280;19836;55.812;37.560;2023-08-24T02:20:37;99105.13;;;16.94;81.53
33496;BME280;19836;55.812;37.560;2023-08-24T02:23:04;99111.41;;;16.94;81.50
33496;BME280;19836;55.812;37.560;2023-08-24T02:25:30;99109.38;;;16.98;81.66
33496;BME280;19836;55.812;37.560;2023-08-24T02:27:57;99114.50;;;17.02;81.78
33496;BME280;19836;55.812;37.560;2023-08-24T02:30:23;99113.59;;;17.02;81.54
33496;BME280;19836;55.812;37.560;2023-08-24T02:32:50;99110.81;;;17.03;81.68
33496;BME280;19836;55.812;37.560;2023-08-24T02:35:16;99119.03;;;17.02;81.81
33496;BME280;19836;55.812;37.560;2023-08-24T02:37:43;99111.00;;;17.00;82.41
33496;BME280;19836;55.812;37.560;2023-08-24T02:40:12;99115.44;;;17.01;82.40
33496;BME280;19836;55.812;37.560;2023-08-24T02:42:38;99122.91;;;16.98;82.38
33496;BME280;19836;55.812;37.560;2023-08-24T02:45:04;99120.50;;;16.93;82.46
33496;BME280;19836;55.812;37.560;2023-08-24T02:47:32;99120.50;;;16.93;82.35
33496;BME280;19836;55.812;37.560;2023-08-24T02:49:59;99116.91;;;16.93;82.07
33496;BME280;19836;55.812;37.560;2023-08-24T02:52:25;99121.66;;;16.89;82.03
33496;BME280;19836;55.812;37.560;2023-08-24T02:54:51;99127.06;;;16.89;81.73
33496;BME280;19836;55.812;37.560;2023-08-24T02:57:17;99120.78;;;16.89;81.71
33496;BME280;19836;55.812;37.560;2023-08-24T02:59:42;99123.50;;;16.89;81.59
33496;BME280;19836;55.812;37.560;2023-08-24T03:02:10;99120.59;;;16.92;81.57
33496;BME280;19836;55.812;37.560;2023-08-24T03:04:36;99126.66;;;16.95;81.22
33496;BME280;19836;55.812;37.560;2023-08-24T03:07:03;99133.72;;;16.98;81.34
33496;BME280;19836;55.812;37.560;2023-08-24T03:09:30;99131.81;;;17.00;81.07
33496;BME280;19836;55.812;37.560;2023-08-24T03:11:56;99134.28;;;17.03;80.98
33496;BME280;19836;55.812;37.560;2023-08-24T03:14:22;99128.38;;;17.10;81.15
33496;BME280;19836;55.812;37.560;2023-08-24T03:16:48;99134.44;;;17.14;80.66
33496;BME280;19836;55.812;37.560;2023-08-24T03:19:16;99133.78;;;17.10;80.42
33496;BME280;19836;55.812;37.560;2023-08-24T03:21:44;99132.06;;;17.09;80.42
33496;BME280;19836;55.812;37.560;2023-08-24T03:24:11;99133.13;;;17.07;80.28
33496;BME280;19836;55.812;37.560;2023-08-24T03:26:39;99133.78;;;17.10;80.00
33496;BME280;19836;55.812;37.560;2023-08-24T03:29:05;99139.75;;;17.15;80.19
33496;BME280;19836;55.812;37.560;2023-08-24T03:31:31;99137.06;;;17.15;80.07
33496;BME280;19836;55.812;37.560;2023-08-24T03:33:58;99148.28;;;17.09;79.79
33496;BME280;19836;55.812;37.560;2023-08-24T03:36:24;99141.34;;;17.05;79.93
33496;BME280;19836;55.812;37.560;2023-08-24T03:38:54;99146.75;;;17.05;80.09
33496;BME280;19836;55.812;37.560;2023-08-24T03:41:22;99137.28;;;17.12;80.12
33496;BME280;19836;55.812;37.560;2023-08-24T03:43:47;99147.69;;;17.18;79.96
33496;BME280;19836;55.812;37.560;2023-08-24T03:46:13;99143.91;;;17.21;80.16
33496;BME280;19836;55.812;37.560;2023-08-24T03:48:41;99151.16;;;17.20;80.08
33496;BME280;19836;55.812;37.560;2023-08-24T03:51:07;99147.69;;;17.18;79.98
33496;BME280;19836;55.812;37.560;2023-08-24T03:53:36;99144.00;;;17.19;80.07
33496;BME280;19836;55.812;37.560;2023-08-24T03:56:02;99145.56;;;17.23;80.00
33496;BME280;19836;55.812;37.560;2023-08-24T03:58:28;99136.03;;;17.30;79.96
33496;BME280;19836;55.812;37.560;2023-08-24T04:00:54;99134.38;;;17.42;79.78
33496;BME280;19836;55.812;37.560;2023-08-24T04:03:21;99140.25;;;17.48;79.28
33496;BME280;19836;55.812;37.560;2023-08-24T04:05:47;99136.56;;;17.49;78.84
33496;BME280;19836;55.812;37.560;2023-08-24T04:08:13;99138.53;;;17.47;78.71
33496;BME280;19836;55.812;37.560;2023-08-24T04:10:39;99147.22;;;17.52;78.58
33496;BME280;19836;55.812;37.560;2023-08-24T04:13:05;99145.94;;;17.70;78.46
33496;BME280;19836;55.812;37.560;2023-08-24T04:15:31;99146.59;;;17.74;78.03
33496;BME280;19836;55.812;37.560;2023-08-24T04:17:57;99144.66;;;17.76;77.60
33496;BME280;19836;55.812;37.560;2023-08-24T04:20:23;99147.47;;;17.74;77.49
33496;BME280;19836;55.812;37.560;2023-08-24T04:22:49;99149.00;;;17.78;77.29
33496;BME280;19836;55.812;37.560;2023-08-24T04:25:15;99154.19;;;17.81;76.60
33496;BME280;19836;55.812;37.560;2023-08-24T04:27:41;99148.56;;;17.72;76.56
33496;BME280;19836;55.812;37.560;2023-08-24T04:30:07;99166.09;;;17.66;76.70
33496;BME280;19836;55.812;37.560;2023-08-24T04:32:37;99163.19;;;17.69;76.61
33496;BME280;19836;55.812;37.560;2023-08-24T04:35:03;99160.16;;;17.74;76.75
33496;BME280;19836;55.812;37.560;2023-08-24T04:37:30;99157.78;;;17.82;76.83
33496;BME280;19836;55.812;37.560;2023-08-24T04:39:56;99158.34;;;17.87;76.17
33496;BME280;19836;55.812;37.560;2023-08-24T04:42:22;99154.88;;;17.85;76.02
33496;BME280;19836;55.812;37.560;2023-08-24T04:44:48;99155.28;;;17.79;75.73
33496;BME280;19836;55.812;37.560;2023-08-24T04:47:16;99152.38;;;17.82;75.67
33496;BME280;19836;55.812;37.560;2023-08-24T04:49:42;99150.53;;;17.95;75.88
33496;BME280;19836;55.812;37.560;2023-08-24T04:52:08;99155.56;;;18.01;75.51
33496;BME280;19836;55.812;37.560;2023-08-24T04:54:33;99158.91;;;18.04;75.17
33496;BME280;19836;55.812;37.560;2023-08-24T04:56:59;99151.78;;;18.03;74.70
33496;BME280;19836;55.812;37.560;2023-08-24T04:59:25;99160.47;;;18.21;74.76
33496;BME280;19836;55.812;37.560;2023-08-24T05:01:51;99167.06;;;18.29;74.34
33496;BME280;19836;55.812;37.560;2023-08-24T05:04:17;99158.63;;;18.34;73.97
33496;BME280;19836;55.812;37.560;2023-08-24T05:06:43;99165.44;;;18.27;73.82
33496;BME280;19836;55.812;37.560;2023-08-24T05:09:09;99161.41;;;18.20;73.78
33496;BME280;19836;55.812;37.560;2023-08-24T05:11:35;99161.75;;;18.15;73.80
33496;BME280;19836;55.812;37.560;2023-08-24T05:14:01;99161.00;;;18.13;73.86
33496;BME280;19836;55.812;37.560;2023-08-24T05:16:26;99163.19;;;18.21;73.80
33496;BME280;19836;55.812;37.560;2023-08-24T05:18:53;99157.84;;;18.19;73.28
33496;BME280;19836;55.812;37.560;2023-08-24T05:21:19;99169.97;;;18.14;73.22
33496;BME280;19836;55.812;37.560;2023-08-24T05:23:45;99162.81;;;18.00;73.24
33496;BME280;19836;55.812;37.560;2023-08-24T05:26:10;99167.81;;;18.06;73.78
33496;BME280;19836;55.812;37.560;2023-08-24T05:28:36;99166.00;;;18.19;73.66
33496;BME280;19836;55.812;37.560;2023-08-24T05:31:02;99163.72;;;18.26;73.46
33496;BME280;19836;55.812;37.560;2023-08-24T05:33:28;99166.47;;;18.38;73.24
33496;BME280;19836;55.812;37.560;2023-08-24T05:35:56;99162.13;;;18.48;72.60
33496;BME280;19836;55.812;37.560;2023-08-24T05:38:23;99167.56;;;18.48;71.96
33496;BME280;19836;55.812;37.560;2023-08-24T05:40:49;99163.75;;;18.38;71.71
33496;BME280;19836;55.812;37.560;2023-08-24T05:43:15;99159.03;;;18.28;71.82
33496;BME280;19836;55.812;37.560;2023-08-24T05:45:41;99170.31;;;18.09;72.07
33496;BME280;19836;55.812;37.560;2023-08-24T05:48:10;99167.81;;;18.06;72.48
33496;BME280;19836;55.812;37.560;2023-08-24T05:50:37;99161.00;;;18.13;72.94
33496;BME280;19836;55.812;37.560;2023-08-24T05:53:03;99167.50;;;18.23;72.77
33496;BME280;19836;55.812;37.560;2023-08-24T05:55:29;99166.56;;;18.37;72.40
33496;BME280;19836;55.812;37.560;2023-08-24T05:57:55;99164.06;;;18.46;72.00
33496;BME280;19836;55.812;37.560;2023-08-24T06:00:21;99173.81;;;18.49;71.64
33496;BME280;19836;55.812;37.560;2023-08-24T06:02:48;99175.25;;;18.54;71.29
33496;BME280;19836;55.812;37.560;2023-08-24T06:05:13;99174.72;;;18.49;71.05
33496;BME280;19836;55.812;37.560;2023-08-24T06:07:39;99184.03;;;18.45;70.82
33496;BME280;19836;55.812;37.560;2023-08-24T06:10:06;99183.38;;;18.42;70.67
33496;BME280;19836;55.812;37.560;2023-08-24T06:12:33;99186.00;;;18.43;70.40
33496;BME280;19836;55.812;37.560;2023-08-24T06:14:59;99193.81;;;18.48;70.33
33496;BME280;19836;55.812;37.560;2023-08-24T06:17:32;99201.19;;;18.46;69.84
33496;BME280;19836;55.812;37.560;2023-08-24T06:19:58;99199.22;;;18.35;69.84
33496;BME280;19836;55.812;37.560;2023-08-24T06:22:24;99203.06;;;18.19;70.01
33496;BME280;19836;55.812;37.560;2023-08-24T06:24:50;99203.06;;;18.06;70.47
33496;BME280;19836;55.812;37.560;2023-08-24T06:27:16;99210.72;;;18.00;70.77
33496;BME280;19836;55.812;37.560;2023-08-24T06:29:45;99203.03;;;17.94;71.14
33496;BME280;19836;55.812;37.560;2023-08-24T06:32:10;99205.63;;;17.95;71.24
33496;BME280;19836;55.812;37.560;2023-08-24T06:34:36;99211.47;;;17.89;71.38
33496;BME280;19836;55.812;37.560;2023-08-24T06:37:02;99211.34;;;17.78;71.32
33496;BME280;19836;55.812;37.560;2023-08-24T06:39:29;99215.31;;;17.73;71.63
33496;BME280;19836;55.812;37.560;2023-08-24T06:41:55;99211.34;;;17.78;72.04
33496;BME280;19836;55.812;37.560;2023-08-24T06:44:24;99217.31;;;17.83;71.80
33496;BME280;19836;55.812;37.560;2023-08-24T06:46:50;99218.63;;;17.90;71.81
33496;BME280;19836;55.812;37.560;2023-08-24T06:49:16;99217.38;;;17.96;71.43
33496;BME280;19836;55.812;37.560;2023-08-24T06:51:42;99223.50;;;17.85;70.93
33496;BME280;19836;55.812;37.560;2023-08-24T06:54:08;99222.75;;;17.83;71.13
33496;BME280;19836;55.812;37.560;2023-08-24T06:56:34;99224.28;;;18.00;71.39
33496;BME280;19836;55.812;37.560;2023-08-24T06:59:00;99228.56;;;18.16;70.35
33496;BME280;19836;55.812;37.560;2023-08-24T07:01:26;99232.06;;;18.31;69.83
33496;BME280;19836;55.812;37.560;2023-08-24T07:03:52;99229.47;;;18.29;69.47
33496;BME280;19836;55.812;37.560;2023-08-24T07:06:17;99233.88;;;18.18;69.49
33496;BME280;19836;55.812;37.560;2023-08-24T07:08:43;99230.16;;;18.06;69.73
33496;BME280;19836;55.812;37.560;2023-08-24T07:11:09;99228.09;;;18.10;70.20
33496;BME280;19836;55.812;37.560;2023-08-24T07:13:35;99233.88;;;18.18;70.13
33496;BME280;19836;55.812;37.560;2023-08-24T07:16:01;99230.44;;;18.28;69.92
33496;BME280;19836;55.812;37.560;2023-08-24T07:18:29;99231.97;;;18.32;69.80
33496;BME280;19836;55.812;37.560;2023-08-24T07:20:54;99234.94;;;18.42;69.41
33496;BME280;19836;55.812;37.560;2023-08-24T07:23:20;99237.00;;;18.38;69.21
33496;BME280;19836;55.812;37.560;2023-08-24T07:25:46;99238.34;;;18.31;68.96
33496;BME280;19836;55.812;37.560;2023-08-24T07:28:13;99241.28;;;18.16;69.08
33496;BME280;19836;55.812;37.560;2023-08-24T07:30:39;99236.66;;;18.04;69.20
33496;BME280;19836;55.812;37.560;2023-08-24T07:33:05;99233.22;;;18.14;69.09
33496;BME280;19836;55.812;37.560;2023-08-24T07:35:31;99232.19;;;18.29;69.15
33496;BME280;19836;55.812;37.560;2023-08-24T07:38:00;99239.03;;;18.47;69.08
33496;BME280;19836;55.812;37.560;2023-08-24T07:40:26;99239.59;;;18.65;68.24
33496;BME280;19836;55.812;37.560;2023-08-24T07:42:53;99244.72;;;18.82;67.33
33496;BME280;19836;55.812;37.560;2023-08-24T07:45:22;99236.88;;;18.90;67.47
33496;BME280;19836;55.812;37.560;2023-08-24T07:47:51;99239.19;;;18.83;67.08
33496;BME280;19836;55.812;37.560;2023-08-24T07:50:17;99251.97;;;18.69;66.99
33496;BME280;19836;55.812;37.560;2023-08-24T07:52:43;99250.59;;;18.51;67.57
33496;BME280;19836;55.812;37.560;2023-08-24T07:55:09;99252.19;;;18.41;67.62
33496;BME280;19836;55.812;37.560;2023-08-24T07:57:36;99251.22;;;18.42;68.05
33496;BME280;19836;55.812;37.560;2023-08-24T08:00:03;99254.47;;;18.47;68.21
33496;BME280;19836;55.812;37.560;2023-08-24T08:02:39;99249.16;;;18.58;67.77
33496;BME280;19836;55.812;37.560;2023-08-24T08:05:05;99256.31;;;18.71;67.30
33496;BME280;19836;55.812;37.560;2023-08-24T08:07:34;99248.28;;;18.70;66.99
33496;BME280;19836;55.812;37.560;2023-08-24T08:10:00;99257.09;;;18.61;66.82
33496;BME280;19836;55.812;37.560;2023-08-24T08:12:26;99251.88;;;18.58;66.54
33496;BME280;19836;55.812;37.560;2023-08-24T08:14:52;99256.88;;;18.64;66.79
33496;BME280;19836;55.812;37.560;2023-08-24T08:17:18;99260.66;;;18.61;66.82
33496;BME280;19836;55.812;37.560;2023-08-24T08:19:44;99247.19;;;18.60;66.78
33496;BME280;19836;55.812;37.560;2023-08-24T08:22:10;99251.53;;;18.62;67.02
33496;BME280;19836;55.812;37.560;2023-08-24T08:24:35;99255.78;;;18.66;67.12
33496;BME280;19836;55.812;37.560;2023-08-24T08:27:01;99257.22;;;18.84;66.81
33496;BME280;19836;55.812;37.560;2023-08-24T08:29:28;99254.47;;;18.97;66.16
33496;BME280;19836;55.812;37.560;2023-08-24T08:31:54;99256.72;;;19.15;65.56
33496;BME280;19836;55.812;37.560;2023-08-24T08:34:19;99251.38;;;19.39;65.27
33496;BME280;19836;55.812;37.560;2023-08-24T08:36:45;99255.50;;;19.44;64.25
33496;BME280;19836;55.812;37.560;2023-08-24T08:39:11;99254.06;;;19.51;64.20
33496;BME280;19836;55.812;37.560;2023-08-24T08:41:42;99255.59;;;19.55;63.81
33496;BME280;19836;55.812;37.560;2023-08-24T08:44:10;99261.63;;;19.35;63.72
33496;BME280;19836;55.812;37.560;2023-08-24T08:46:38;99256.53;;;19.18;63.97
33496;BME280;19836;55.812;37.560;2023-08-24T08:49:06;99265.44;;;19.08;64.41
33496;BME280;19836;55.812;37.560;2023-08-24T08:51:33;99261.84;;;18.95;64.81
33496;BME280;19836;55.812;37.560;2023-08-24T08:53:59;99268.06;;;18.97;65.06
33496;BME280;19836;55.812;37.560;2023-08-24T08:56:26;99266.75;;;18.90;64.91
33496;BME280;19836;55.812;37.560;2023-08-24T08:58:52;99267.41;;;18.81;65.27
33496;BME280;19836;55.812;37.560;2023-08-24T09:01:21;99263.72;;;18.69;65.09
33496;BME280;19836;55.812;37.560;2023-08-24T09:03:48;99269.34;;;18.66;65.15
33496;BME280;19836;55.812;37.560;2023-08-24T09:06:14;99266.00;;;18.63;65.24
33496;BME280;19836;55.812;37.560;2023-08-24T09:08:40;99260.66;;;18.61;65.36
33496;BME280;19836;55.812;37.560;2023-08-24T09:11:06;99263.19;;;18.64;65.63
33496;BME280;19836;55.812;37.560;2023-08-24T09:13:34;99265.56;;;18.69;65.54
33496;BME280;19836;55.812;37.560;2023-08-24T09:16:07;99263.28;;;18.75;65.69
33496;BME280;19836;55.812;37.560;2023-08-24T09:18:37;99270.69;;;18.73;65.79
33496;BME280;19836;55.812;37.560;2023-08-24T09:21:09;99270.34;;;18.78;65.71
33496;BME280;19836;55.812;37.560;2023-08-24T09:23:38;99270.69;;;18.86;65.63
33496;BME280;19836;55.812;37.560;2023-08-24T09:26:04;99271.53;;;18.99;65.44
33496;BME280;19836;55.812;37.560;2023-08-24T09:28:30;99271.75;;;19.08;65.13
33496;BME280;19836;55.812;37.560;2023-08-24T09:30:59;99276.28;;;19.20;64.46
33496;BME280;19836;55.812;37.560;2023-08-24T09:33:25;99274.31;;;19.35;64.18
33496;BME280;19836;55.812;37.560;2023-08-24T09:35:53;99279.03;;;19.69;63.36
33496;BME280;19836;55.812;37.560;2023-08-24T09:38:22;99273.22;;;20.09;62.28
33496;BME280;19836;55.812;37.560;2023-08-24T09:40:54;99277.47;;;20.13;61.37
33496;BME280;19836;55.812;37.560;2023-08-24T09:43:20;99273.66;;;20.03;61.28
33496;BME280;19836;55.812;37.560;2023-08-24T09:45:54;99279.28;;;19.89;61.60
33496;BME280;19836;55.812;37.560;2023-08-24T09:48:21;99284.88;;;19.75;61.50
33496;BME280;19836;55.812;37.560;2023-08-24T09:50:49;99274.41;;;19.58;61.74
33496;BME280;19836;55.812;37.560;2023-08-24T09:53:24;99274.44;;;19.46;62.14
33496;BME280;19836;55.812;37.560;2023-08-24T09:56:01;99272.38;;;19.37;62.59
33496;BME280;19836;55.812;37.560;2023-08-24T09:58:28;99280.56;;;19.24;62.96
33496;BME280;19836;55.812;37.560;2023-08-24T10:00:55;99279.56;;;19.13;63.31
33496;BME280;19836;55.812;37.560;2023-08-24T10:03:26;99280.00;;;19.07;63.66
33496;BME280;19836;55.812;37.560;2023-08-24T10:05:54;99275.66;;;19.04;63.72
33496;BME280;19836;55.812;37.560;2023-08-24T10:08:24;99275.88;;;19.01;63.82
33496;BME280;19836;55.812;37.560;2023-08-24T10:10:53;99286.28;;;18.95;63.49
33496;BME280;19836;55.812;37.560;2023-08-24T10:16:24;99282.19;;;18.89;63.60
33496;BME280;19836;55.812;37.560;2023-08-24T10:18:50;99279.78;;;18.85;63.86
33496;BME280;19836;55.812;37.560;2023-08-24T10:21:17;99286.09;;;18.85;64.35
33496;BME280;19836;55.812;37.560;2023-08-24T10:23:45;99280.66;;;18.85;63.96
33496;BME280;19836;55.812;37.560;2023-08-24T10:26:12;99278.94;;;18.84;63.92
33496;BME280;19836;55.812;37.560;2023-08-24T10:28:38;99283.91;;;18.90;63.46
33496;BME280;19836;55.812;37.560;2023-08-24T10:31:05;99282.63;;;19.08;63.78
33496;BME280;19836;55.812;37.560;2023-08-24T10:33:32;99286.19;;;19.34;63.58
33496;BME280;19836;55.812;37.560;2023-08-24T10:36:00;99286.47;;;19.54;63.37
33496;BME280;19836;55.812;37.560;2023-08-24T10:38:27;99290.13;;;19.66;62.53
33496;BME280;19836;55.812;37.560;2023-08-24T10:40:54;99276.41;;;19.67;61.80
33496;BME280;19836;55.812;37.560;2023-08-24T10:43:22;99287.06;;;19.70;61.52
33496;BME280;19836;55.812;37.560;2023-08-24T10:48:28;99281.78;;;19.80;60.94
33496;BME280;19836;55.812;37.560;2023-08-24T10:51:23;99282.25;;;19.74;60.27
33496;BME280;19836;55.812;37.560;2023-08-24T10:53:55;99284.69;;;19.66;60.60
33496;BME280;19836;55.812;37.560;2023-08-24T10:56:39;99290.16;;;19.53;60.12
33496;BME280;19836;55.812;37.560;2023-08-24T10:59:16;99294.72;;;19.53;60.82
33496;BME280;19836;55.812;37.560;2023-08-24T11:04:18;99297.34;;;19.54;61.08
33496;BME280;19836;55.812;37.560;2023-08-24T11:06:54;99293.09;;;19.50;60.85
33496;BME280;19836;55.812;37.560;2023-08-24T11:09:22;99301.47;;;19.47;60.65
33496;BME280;19836;55.812;37.560;2023-08-24T11:12:04;99293.47;;;19.46;60.78
33496;BME280;19836;55.812;37.560;2023-08-24T11:14:31;99302.88;;;19.53;60.75
33496;BME280;19836;55.812;37.560;2023-08-24T11:17:00;99305.34;;;19.68;60.67
33496;BME280;19836;55.812;37.560;2023-08-24T11:19:28;99303.81;;;19.77;60.01
33496;BME280;19836;55.812;37.560;2023-08-24T11:21:55;99300.09;;;19.78;59.97
33496;BME280;19836;55.812;37.560;2023-08-24T11:24:22;99298.69;;;19.72;60.18
33496;BME280;19836;55.812;37.560;2023-08-24T11:26:49;99291.50;;;19.71;59.99
33496;BME280;19836;55.812;37.560;2023-08-24T11:29:15;99295.63;;;19.77;60.13
33496;BME280;19836;55.812;37.560;2023-08-24T11:31:43;99290.16;;;19.89;60.11
33496;BME280;19836;55.812;37.560;2023-08-24T11:34:10;99297.81;;;20.08;59.50
33496;BME280;19836;55.812;37.560;2023-08-24T11:36:43;99289.13;;;20.26;58.81
33496;BME280;19836;55.812;37.560;2023-08-24T11:39:15;99284.00;;;20.45;58.10
33496;BME280;19836;55.812;37.560;2023-08-24T11:41:42;99294.25;;;20.87;57.99
33496;BME280;19836;55.812;37.560;2023-08-24T11:44:08;99292.22;;;21.24;57.45
33496;BME280;19836;55.812;37.560;2023-08-24T11:46:34;99289.97;;;21.51;56.40
33496;BME280;19836;55.812;37.560;2023-08-24T11:49:00;99290.63;;;21.21;56.16
33496;BME280;19836;55.812;37.560;2023-08-24T11:51:26;99289.50;;;20.67;56.31
33496;BME280;19836;55.812;37.560;2023-08-24T11:53:52;99298.56;;;20.33;56.92
33496;BME280;19836;55.812;37.560;2023-08-24T11:56:17;99302.59;;;20.04;57.88
33496;BME280;19836;55.812;37.560;2023-08-24T11:58:48;99302.69;;;19.79;58.34
33496;BME280;19836;55.812;37.560;2023-08-24T12:01:15;99295.91;;;19.61;58.49
33496;BME280;19836;55.812;37.560;2023-08-24T12:03:41;99307.00;;;19.58;59.06
33496;BME280;19836;55.812;37.560;2023-08-24T12:06:14;99305.38;;;19.56;58.93
33496;BME280;19836;55.812;37.560;2023-08-24T12:08:42;99303.63;;;19.55;58.83
33496;BME280;19836;55.812;37.560;2023-08-24T12:11:26;99311.44;;;19.72;58.98
33496;BME280;19836;55.812;37.560;2023-08-24T12:13:54;99299.56;;;19.96;58.64
33496;BME280;19836;55.812;37.560;2023-08-24T12:16:22;99304.31;;;20.18;57.68
33496;BME280;19836;55.812;37.560;2023-08-24T12:18:56;99300.78;;;20.28;57.37
33496;BME280;19836;55.812;37.560;2023-08-24T12:21:25;99305.56;;;20.25;56.97
33496;BME280;19836;55.812;37.560;2023-08-24T12:23:55;99299.97;;;20.15;56.47
33496;BME280;19836;55.812;37.560;2023-08-24T12:26:21;99299.66;;;20.07;56.30
33496;BME280;19836;55.812;37.560;2023-08-24T12:28:51;99295.19;;;20.06;56.75
33496;BME280;19836;55.812;37.560;2023-08-24T12:31:20;99296.94;;;20.07;56.60
33496;BME280;19836;55.812;37.560;2023-08-24T12:34:00;99294.88;;;20.11;57.03
33496;BME280;19836;55.812;37.560;2023-08-24T12:36:26;99289.81;;;20.17;56.81
33496;BME280;19836;55.812;37.560;2023-08-24T12:38:52;99289.38;;;20.23;56.87
33496;BME280;19836;55.812;37.560;2023-08-24T12:41:18;99291.22;;;20.23;56.89
33496;BME280;19836;55.812;37.560;2023-08-24T12:43:44;99289.38;;;20.23;56.60
33496;BME280;19836;55.812;37.560;2023-08-24T12:46:10;99292.31;;;20.20;56.39
33496;BME280;19836;55.812;37.560;2023-08-24T12:48:36;99293.06;;;20.22;56.44
33496;BME280;19836;55.812;37.560;2023-08-24T12:51:02;99293.31;;;20.19;56.71
33496;BME280;19836;55.812;37.560;2023-08-24T12:53:28;99294.53;;;20.15;56.65
33496;BME280;19836;55.812;37.560;2023-08-24T12:55:54;99297.25;;;20.15;56.68
33496;BME280;19836;55.812;37.560;2023-08-24T12:58:19;99300.97;;;20.14;56.57
33496;BME280;19836;55.812;37.560;2023-08-24T13:00:45;99296.72;;;20.10;56.61
33496;BME280;19836;55.812;37.560;2023-08-24T13:03:12;99293.25;;;20.08;56.67
33496;BME280;19836;55.812;37.560;2023-08-24T13:05:38;99299.97;;;20.15;56.85
33496;BME280;19836;55.812;37.560;2023-08-24T13:08:04;99295.78;;;20.22;56.47